createdAt,value
2023-05-14T00:07:02.505Z,12.52
2023-05-14T00:13:50.648Z,14.35
2023-05-14T00:17:08.255Z,17.65
2023-05-14T00:23:39.616Z,16.55
2023-05-14T00:26:54.195Z,16.67
2023-05-14T00:30:18.826Z,11.20
2023-05-14T00:37:19.721Z,13.30
2023-05-14T00:43:54.754Z,15.98
2023-05-14T00:47:14.035Z,16.08
2023-05-14T00:53:40.046Z,15.88
2023-05-14T00:56:31.134Z,16.00
2023-05-14T00:59:19.916Z,14.93
2023-05-14T01:02:30.966Z,18.55
2023-05-14T01:05:20.090Z,23.67
2023-05-14T01:08:21.771Z,24.02
2023-05-14T01:11:21.597Z,23.63
2023-05-14T01:14:24.455Z,28.95
2023-05-14T01:20:02.882Z,25.65
2023-05-14T01:22:48.745Z,25.70
2023-05-14T01:25:38.268Z,18.02
2023-05-14T01:28:28.110Z,13.20
2023-05-14T01:31:35.419Z,17.27
2023-05-14T01:34:18.061Z,19.98
2023-05-14T01:37:04.546Z,20.02
2023-05-14T01:39:48.014Z,24.88
2023-05-14T01:42:23.556Z,21.10
2023-05-14T01:45:03.749Z,21.35
2023-05-14T01:47:55.270Z,26.08
2023-05-14T01:50:46.642Z,19.27
2023-05-14T01:53:34.478Z,18.73
2023-05-14T01:56:27.261Z,16.35
2023-05-14T01:59:31.815Z,18.58
2023-05-14T02:02:36.689Z,13.38
2023-05-14T02:05:57.864Z,22.15
2023-05-14T02:09:07.265Z,18.63
2023-05-14T02:12:12.053Z,16.25
2023-05-14T02:14:46.999Z,16.17
2023-05-14T02:17:42.280Z,12.45
2023-05-14T02:20:24.907Z,15.23
2023-05-14T02:23:41.653Z,16.52
2023-05-14T02:26:36.679Z,18.27
2023-05-14T02:29:48.792Z,17.30
2023-05-14T02:32:40.325Z,16.60
2023-05-14T02:35:31.131Z,15.20
2023-05-14T02:38:10.865Z,21.65
2023-05-14T02:40:59.871Z,17.73
2023-05-14T02:43:47.708Z,15.23
2023-05-14T02:46:39.986Z,17.73
2023-05-14T02:49:14.835Z,18.45
2023-05-14T02:51:47.351Z,18.80
2023-05-14T02:54:38.682Z,16.02
2023-05-14T02:57:24.577Z,18.58
2023-05-14T03:00:12.445Z,18.00
2023-05-14T03:02:59.814Z,18.60
2023-05-14T03:06:00.853Z,17.63
2023-05-14T03:09:09.641Z,18.02
2023-05-14T03:12:27.288Z,19.50
2023-05-14T03:22:19.556Z,19.83
2023-05-14T03:24:54.542Z,17.05
2023-05-14T03:27:21.637Z,19.65
2023-05-14T03:29:48.829Z,17.10
2023-05-14T03:32:15.895Z,19.38
2023-05-14T03:34:44.914Z,18.38
2023-05-14T03:37:12.255Z,18.85
2023-05-14T03:39:39.380Z,20.45
2023-05-14T03:42:06.785Z,17.50
2023-05-14T03:44:33.788Z,19.52
2023-05-14T03:47:00.762Z,19.73
2023-05-14T03:49:28.160Z,16.08
2023-05-14T03:51:56.195Z,18.55
2023-05-14T03:54:23.269Z,18.48
2023-05-14T03:56:50.386Z,17.63
2023-05-14T03:59:17.485Z,17.98
2023-05-14T04:01:44.813Z,15.82
2023-05-14T04:04:12.082Z,18.98
2023-05-14T04:06:39.259Z,18.13
2023-05-14T04:09:06.521Z,18.45
2023-05-14T04:11:33.544Z,16.60
2023-05-14T04:14:00.568Z,16.10
2023-05-14T04:16:27.631Z,20.73
2023-05-14T04:18:54.818Z,14.88
2023-05-14T04:21:21.867Z,17.45
2023-05-14T04:23:49.015Z,18.05
2023-05-14T04:26:16.207Z,20.55
2023-05-14T04:28:43.314Z,19.17
2023-05-14T04:31:10.646Z,18.17
2023-05-14T04:33:37.668Z,17.88
2023-05-14T04:36:05.954Z,19.88
2023-05-14T04:38:33.117Z,16.73
2023-05-14T04:41:00.390Z,19.92
2023-05-14T04:43:27.431Z,16.65
2023-05-14T04:45:54.691Z,16.55
2023-05-14T04:48:21.998Z,18.30
2023-05-14T04:50:49.061Z,20.00
2023-05-14T04:53:16.120Z,17.55
2023-05-14T04:55:43.202Z,21.42
2023-05-14T04:58:10.252Z,17.02
2023-05-14T05:00:37.723Z,18.25
2023-05-14T05:03:04.888Z,18.27
2023-05-14T05:05:32.030Z,19.38
2023-05-14T05:07:59.179Z,18.05
2023-05-14T05:10:26.702Z,24.98
2023-05-14T05:12:54.087Z,18.35
2023-05-14T05:15:21.130Z,18.52
2023-05-14T05:17:48.380Z,18.80
2023-05-14T05:20:15.758Z,23.15
2023-05-14T05:22:42.869Z,22.25
2023-05-14T05:25:09.980Z,22.45
2023-05-14T05:27:37.069Z,21.55
2023-05-14T05:30:04.697Z,17.35
2023-05-14T05:32:31.921Z,18.33
2023-05-14T05:34:59.016Z,15.90
2023-05-14T05:37:26.196Z,21.02
2023-05-14T05:39:54.246Z,16.80
2023-05-14T05:42:21.338Z,17.67
2023-05-14T05:44:48.590Z,21.52
2023-05-14T05:47:16.087Z,19.60
2023-05-14T05:49:43.252Z,21.00
2023-05-14T05:52:10.580Z,19.13
2023-05-14T05:54:39.965Z,18.73
2023-05-14T05:57:07.359Z,20.60
2023-05-14T05:59:34.698Z,17.80
2023-05-14T06:02:01.908Z,20.02
2023-05-14T06:04:29.081Z,17.60
2023-05-14T06:06:56.211Z,14.98
2023-05-14T06:09:23.381Z,18.42
2023-05-14T06:11:50.578Z,14.07
2023-05-14T06:14:17.824Z,12.55
2023-05-14T06:16:45.147Z,12.95
2023-05-14T06:19:12.473Z,14.57
2023-05-14T06:21:39.944Z,10.98
2023-05-14T06:24:07.610Z,12.75
2023-05-14T06:26:34.617Z,15.23
2023-05-14T06:29:01.847Z,17.33
2023-05-14T06:31:29.061Z,19.27
2023-05-14T06:33:56.324Z,18.58
2023-05-14T06:36:23.397Z,16.08
2023-05-14T06:38:50.652Z,12.07
2023-05-14T06:41:18.267Z,14.30
2023-05-14T06:43:45.291Z,16.95
2023-05-14T06:46:12.383Z,15.00
2023-05-14T06:48:39.481Z,14.68
2023-05-14T06:51:06.743Z,16.38
2023-05-14T06:53:33.880Z,11.85
2023-05-14T06:56:00.961Z,14.25
2023-05-14T06:58:28.113Z,14.13
2023-05-14T07:00:55.248Z,11.57
2023-05-14T07:03:22.740Z,14.02
2023-05-14T07:05:50.034Z,11.35
2023-05-14T07:08:17.131Z,12.02
2023-05-14T07:10:44.243Z,11.10
2023-05-14T07:13:11.387Z,14.98
2023-05-14T07:15:38.607Z,14.30
2023-05-14T07:18:05.946Z,13.30
2023-05-14T07:20:33.081Z,10.77
2023-05-14T07:23:00.238Z,10.70
2023-05-14T07:25:27.524Z,13.20
2023-05-14T07:27:54.615Z,12.20
2023-05-14T07:30:22.073Z,9.10
2023-05-14T07:32:49.302Z,10.93
2023-05-14T07:35:16.685Z,9.80
2023-05-14T07:37:43.853Z,14.25
2023-05-14T07:40:11.277Z,8.77
2023-05-14T07:42:38.350Z,12.10
2023-05-14T07:45:05.881Z,8.57
2023-05-14T07:47:33.301Z,8.77
2023-05-14T07:50:00.641Z,9.63
2023-05-14T07:52:27.871Z,13.38
2023-05-14T07:54:55.384Z,9.40
2023-05-14T07:57:22.936Z,8.85
2023-05-14T07:59:50.358Z,10.18
2023-05-14T08:02:17.914Z,7.10
2023-05-14T08:04:45.475Z,9.27
2023-05-14T08:07:12.642Z,11.13
2023-05-14T08:09:40.196Z,9.55
2023-05-14T08:12:07.847Z,9.02
2023-05-14T08:14:35.024Z,10.95
2023-05-14T08:17:02.295Z,7.30
2023-05-14T08:19:29.445Z,11.25
2023-05-14T08:21:56.761Z,7.07
2023-05-14T08:24:23.864Z,8.23
2023-05-14T08:26:51.070Z,11.13
2023-05-14T08:29:18.220Z,7.60
2023-05-14T08:31:45.334Z,12.68
2023-05-14T08:34:12.510Z,9.10
2023-05-14T08:36:40.061Z,9.27
2023-05-14T08:39:10.196Z,8.30
2023-05-14T08:41:38.031Z,8.27
2023-05-14T08:44:13.544Z,12.20
2023-05-14T08:46:41.340Z,9.00
2023-05-14T08:49:30.234Z,12.88
2023-05-14T08:51:58.031Z,7.28
2023-05-14T08:54:27.279Z,9.27
2023-05-14T08:56:54.751Z,9.18
2023-05-14T08:59:22.170Z,9.63
2023-05-14T09:01:53.081Z,8.48
2023-05-14T09:04:22.470Z,9.57
2023-05-14T09:06:51.326Z,7.43
2023-05-14T09:09:18.830Z,8.57
2023-05-14T09:11:50.930Z,8.93
2023-05-14T09:14:18.268Z,7.78
2023-05-14T09:16:47.179Z,11.30
2023-05-14T09:19:15.985Z,6.88
2023-05-14T09:21:45.631Z,6.50
2023-05-14T09:24:24.190Z,6.95
2023-05-14T09:26:53.693Z,8.95
2023-05-14T09:29:21.166Z,9.20
2023-05-14T09:31:51.555Z,8.27
2023-05-14T09:34:26.255Z,6.05
2023-05-14T09:37:07.673Z,9.02
2023-05-14T09:39:39.466Z,6.53
2023-05-14T09:42:06.921Z,4.78
2023-05-14T09:44:36.497Z,8.88
2023-05-14T09:47:04.520Z,5.60
2023-05-14T09:49:31.666Z,6.65
2023-05-14T09:51:58.746Z,6.68
2023-05-14T09:54:26.707Z,6.88
2023-05-14T09:56:55.624Z,6.68
2023-05-14T09:59:23.030Z,7.82
2023-05-14T10:01:51.404Z,6.00
2023-05-14T10:04:19.217Z,4.28
2023-05-14T10:06:49.985Z,6.75
2023-05-14T10:09:19.949Z,9.27
2023-05-14T10:11:52.869Z,6.28
2023-05-14T10:14:36.314Z,6.10
2023-05-14T10:17:05.121Z,5.95
2023-05-14T10:19:35.619Z,6.28
2023-05-14T10:24:34.900Z,10.05
2023-05-14T10:27:02.557Z,5.97
2023-05-14T10:29:37.796Z,8.90
2023-05-14T10:32:07.440Z,7.35
2023-05-14T10:34:55.861Z,5.75
2023-05-14T10:37:26.794Z,8.07
2023-05-14T10:40:03.255Z,11.15
2023-05-14T10:42:43.486Z,5.53
2023-05-14T10:47:41.059Z,7.65
2023-05-14T10:50:11.222Z,11.10
2023-05-14T10:55:07.945Z,4.85
2023-05-14T10:57:38.503Z,5.30
2023-05-14T11:00:10.952Z,6.78
2023-05-14T11:02:39.815Z,6.38
2023-05-14T11:05:14.363Z,5.68
2023-05-14T11:07:49.649Z,5.80
2023-05-14T11:10:19.292Z,5.68
2023-05-14T11:12:48.598Z,13.02
2023-05-14T11:15:21.544Z,7.18
2023-05-14T11:17:50.596Z,6.78
2023-05-14T11:20:18.940Z,5.40
2023-05-14T11:22:48.426Z,6.75
2023-05-14T11:25:15.929Z,3.70
2023-05-14T11:27:47.814Z,4.90
2023-05-14T11:30:20.026Z,7.95
2023-05-14T11:32:48.584Z,5.78
2023-05-14T11:35:17.246Z,5.78
2023-05-14T11:37:51.243Z,8.13
2023-05-14T11:40:19.231Z,5.07
2023-05-14T11:42:46.442Z,5.43
2023-05-14T11:45:14.863Z,9.07
2023-05-14T11:47:42.952Z,5.05
2023-05-14T11:50:11.359Z,5.32
2023-05-14T11:52:41.256Z,5.10
2023-05-14T11:55:12.910Z,5.68
2023-05-14T11:57:41.359Z,8.10
2023-05-14T12:00:13.667Z,6.82
2023-05-14T12:02:41.240Z,5.32
2023-05-14T12:05:09.384Z,7.38
2023-05-14T12:07:36.570Z,5.93
2023-05-14T12:10:04.342Z,6.57
2023-05-14T12:12:36.614Z,5.90
2023-05-14T12:15:14.433Z,5.68
2023-05-14T12:17:41.811Z,6.18
2023-05-14T12:20:13.801Z,4.20
2023-05-14T12:22:42.516Z,7.20
2023-05-14T12:25:13.945Z,5.18
2023-05-14T12:27:41.920Z,5.93
2023-05-14T12:32:41.271Z,5.70
2023-05-14T12:35:09.244Z,4.70
2023-05-14T12:37:37.820Z,5.97
2023-05-14T12:40:09.377Z,6.72
2023-05-14T12:42:37.199Z,7.72
2023-05-14T12:45:07.436Z,10.63
2023-05-14T12:50:02.381Z,13.25
2023-05-14T12:54:59.882Z,14.43
2023-05-14T12:57:27.976Z,7.35
2023-05-14T12:59:56.277Z,8.90
2023-05-14T13:02:23.426Z,6.28
2023-05-14T13:04:50.559Z,10.98
2023-05-14T13:07:17.582Z,6.45
2023-05-14T13:09:44.680Z,9.60
2023-05-14T13:12:11.855Z,8.07
2023-05-14T13:14:38.956Z,10.07
2023-05-14T13:17:08.206Z,7.00
2023-05-14T13:19:36.365Z,9.60
2023-05-14T13:22:03.816Z,7.80
2023-05-14T13:24:31.031Z,8.00
2023-05-14T13:26:58.419Z,7.68
2023-05-14T13:29:25.518Z,6.35
2023-05-14T13:31:53.428Z,4.97
2023-05-14T13:34:20.499Z,5.85
2023-05-14T13:36:49.499Z,6.00
2023-05-14T13:39:16.724Z,5.22
2023-05-14T13:41:43.881Z,8.70
2023-05-14T13:44:10.995Z,5.53
2023-05-14T13:46:38.268Z,3.95
2023-05-14T13:49:05.654Z,6.28
2023-05-14T13:51:32.861Z,7.93
2023-05-14T13:54:00.283Z,6.57
2023-05-14T13:56:27.433Z,9.23
2023-05-14T13:58:54.683Z,9.82
2023-05-14T14:01:23.648Z,6.03
2023-05-14T14:03:50.947Z,6.22
2023-05-14T14:06:18.739Z,6.78
2023-05-14T14:08:46.053Z,7.00
2023-05-14T14:11:13.979Z,9.07
2023-05-14T14:13:42.590Z,9.85
2023-05-14T14:16:10.905Z,11.43
2023-05-14T14:18:38.307Z,6.03
2023-05-14T14:21:05.368Z,4.78
2023-05-14T14:23:32.582Z,8.50
2023-05-14T14:26:01.133Z,4.97
2023-05-14T14:28:28.162Z,4.05
2023-05-14T14:30:55.515Z,4.60
2023-05-14T14:33:22.657Z,5.20
2023-05-14T14:35:49.761Z,3.17
2023-05-14T14:38:16.871Z,5.45
2023-05-14T14:40:44.040Z,4.03
2023-05-14T14:43:11.223Z,6.50
2023-05-14T14:45:38.580Z,6.88
2023-05-14T14:48:34.527Z,4.43
2023-05-14T14:51:01.843Z,4.88
2023-05-14T14:53:29.927Z,4.13
2023-05-14T14:55:57.857Z,5.93
2023-05-14T14:58:25.076Z,5.28
2023-05-14T15:00:54.864Z,7.22
2023-05-14T15:03:23.439Z,5.20
2023-05-14T15:05:52.501Z,4.20
2023-05-14T15:08:21.210Z,8.18
2023-05-14T15:10:48.711Z,5.20
2023-05-14T15:13:16.000Z,4.95
2023-05-14T15:15:43.623Z,2.78
2023-05-14T15:18:11.120Z,6.05
2023-05-14T15:20:38.250Z,3.60
2023-05-14T15:23:05.462Z,4.40
2023-05-14T15:25:33.263Z,5.65
2023-05-14T15:28:00.962Z,5.70
2023-05-14T15:30:28.492Z,5.82
2023-05-14T15:32:56.044Z,3.90
2023-05-14T15:35:24.588Z,10.55
2023-05-14T15:37:52.287Z,2.85
2023-05-14T15:40:19.825Z,4.93
2023-05-14T15:42:47.194Z,5.05
2023-05-14T15:45:14.697Z,4.25
2023-05-14T15:47:42.007Z,4.93
2023-05-14T15:50:09.384Z,4.15
2023-05-14T15:52:36.754Z,3.65
2023-05-14T15:55:06.299Z,3.47
2023-05-14T15:57:33.683Z,5.53
2023-05-14T16:00:00.768Z,5.78
2023-05-14T16:02:30.684Z,4.00
2023-05-14T16:04:57.913Z,3.78
2023-05-14T16:07:25.104Z,4.95
2023-05-14T16:09:52.274Z,4.53
2023-05-14T16:12:19.412Z,8.25
2023-05-14T16:14:46.701Z,4.53
2023-05-14T16:17:14.070Z,5.10
2023-05-14T16:19:41.566Z,4.68
2023-05-14T16:22:08.726Z,5.35
2023-05-14T16:24:36.478Z,5.45
2023-05-14T16:27:04.259Z,4.25
2023-05-14T16:29:32.431Z,4.32
2023-05-14T16:32:00.324Z,3.90
2023-05-14T16:34:28.365Z,7.30
2023-05-14T16:36:55.599Z,6.60
2023-05-14T16:39:23.316Z,3.72
2023-05-14T16:41:53.251Z,3.30
2023-05-14T16:44:21.807Z,3.72
2023-05-14T16:46:49.223Z,8.45
2023-05-14T16:49:17.112Z,4.82
2023-05-14T16:51:44.998Z,3.80
2023-05-14T16:54:12.272Z,3.75
2023-05-14T16:56:39.504Z,4.70
2023-05-14T16:59:07.737Z,3.90
2023-05-14T17:01:35.552Z,3.53
2023-05-14T17:04:02.838Z,3.80
2023-05-14T17:06:29.998Z,7.00
2023-05-14T17:08:57.049Z,8.00
2023-05-14T17:11:24.150Z,8.63
2023-05-14T17:13:51.402Z,3.97
2023-05-14T17:16:19.974Z,5.38
2023-05-14T17:18:47.343Z,4.55
2023-05-14T17:21:14.617Z,4.20
2023-05-14T17:23:42.704Z,7.07
2023-05-14T17:26:11.295Z,4.68
2023-05-14T17:28:38.365Z,5.53
2023-05-14T17:31:05.659Z,7.43
2023-05-14T17:33:32.837Z,8.13
2023-05-14T17:36:00.569Z,5.43
2023-05-14T17:38:27.667Z,4.88
2023-05-14T17:40:54.854Z,3.53
2023-05-14T17:43:21.966Z,4.13
2023-05-14T17:48:20.087Z,4.00
2023-05-14T17:50:47.327Z,4.63
2023-05-14T17:53:14.695Z,4.72
2023-05-14T17:55:43.933Z,8.32
2023-05-14T17:58:13.776Z,4.35
2023-05-14T18:00:41.768Z,6.30
2023-05-14T18:03:09.260Z,25.45
2023-05-14T18:05:37.291Z,22.70
2023-05-14T18:08:04.587Z,8.07
2023-05-14T18:10:31.817Z,4.65
2023-05-14T18:12:59.299Z,4.72
2023-05-14T18:15:27.561Z,5.82
2023-05-14T18:17:54.921Z,5.22
2023-05-14T18:20:22.214Z,5.45
2023-05-14T18:22:50.816Z,4.72
2023-05-14T18:25:18.164Z,3.95
2023-05-14T18:27:45.707Z,4.38
2023-05-14T18:30:17.001Z,3.85
2023-05-14T18:32:45.174Z,6.32
2023-05-14T18:35:13.680Z,3.25
2023-05-14T18:37:41.219Z,7.78
2023-05-14T18:40:09.143Z,4.07
2023-05-14T18:42:36.428Z,4.47
2023-05-14T18:45:04.574Z,5.78
2023-05-14T18:47:33.130Z,3.75
2023-05-14T18:50:02.183Z,2.67
2023-05-14T18:52:29.886Z,5.00
2023-05-14T18:54:57.178Z,5.22
2023-05-14T18:57:25.341Z,3.85
2023-05-14T18:59:52.647Z,6.25
2023-05-14T19:02:19.903Z,4.85
2023-05-14T19:07:17.175Z,7.28
2023-05-14T19:09:44.282Z,8.00
2023-05-14T19:12:11.428Z,5.05
2023-05-14T19:14:38.516Z,5.18
2023-05-14T19:17:05.996Z,6.03
2023-05-14T19:19:33.098Z,5.55
2023-05-14T19:22:00.526Z,5.60
2023-05-14T19:24:27.637Z,5.10
2023-05-14T19:26:54.722Z,5.50
2023-05-14T19:29:21.942Z,5.22
2023-05-14T19:31:49.644Z,3.95
2023-05-14T19:34:16.835Z,3.67
2023-05-14T19:36:44.017Z,5.75
2023-05-14T19:39:11.297Z,4.78
2023-05-14T19:41:38.712Z,4.85
2023-05-14T19:44:05.845Z,4.75
2023-05-14T19:46:33.154Z,4.20
2023-05-14T19:49:00.650Z,5.82
2023-05-14T19:51:27.756Z,4.40
2023-05-14T19:53:54.999Z,5.70
2023-05-14T19:56:23.193Z,4.50
2023-05-14T19:58:51.452Z,5.65
2023-05-14T20:01:19.487Z,5.45
2023-05-14T20:03:47.151Z,4.95
2023-05-14T20:06:14.718Z,3.42
2023-05-14T20:08:41.879Z,5.43
2023-05-14T20:11:09.021Z,4.57
2023-05-14T20:13:36.964Z,8.18
2023-05-14T20:16:04.189Z,4.57
2023-05-14T20:18:31.434Z,6.75
2023-05-14T20:21:01.446Z,7.60
2023-05-14T20:23:28.618Z,4.82
2023-05-14T20:25:55.921Z,4.80
2023-05-14T20:28:23.002Z,4.95
2023-05-14T20:30:50.110Z,4.03
2023-05-14T20:33:17.315Z,5.10
2023-05-14T20:35:44.614Z,5.40
2023-05-14T20:38:13.012Z,4.82
2023-05-14T20:40:40.387Z,6.00
2023-05-14T20:43:07.596Z,4.57
2023-05-14T20:45:34.706Z,5.88
2023-05-14T20:48:01.999Z,9.45
2023-05-14T20:50:29.204Z,5.30
2023-05-14T20:52:56.393Z,5.57
2023-05-14T20:55:23.608Z,5.70
2023-05-14T20:57:51.160Z,5.25
2023-05-14T21:00:18.773Z,5.35
2023-05-14T21:02:46.691Z,6.25
2023-05-14T21:05:14.291Z,6.13
2023-05-14T21:07:41.362Z,5.10
2023-05-14T21:10:09.323Z,6.80
2023-05-14T21:12:36.500Z,4.80
2023-05-14T21:15:03.788Z,7.50
2023-05-14T21:17:31.214Z,6.60
2023-05-14T21:19:58.336Z,7.22
2023-05-14T21:22:25.688Z,4.70
2023-05-14T21:24:52.809Z,6.50
2023-05-14T21:27:19.949Z,4.03
2023-05-14T21:29:48.554Z,9.52
2023-05-14T21:32:15.813Z,6.75
2023-05-14T21:34:43.646Z,7.70
2023-05-14T21:37:10.880Z,8.52
2023-05-14T21:39:37.968Z,8.38
2023-05-14T21:42:05.389Z,8.73
2023-05-14T21:44:32.522Z,7.72
2023-05-14T21:46:59.858Z,10.15
2023-05-14T21:49:27.108Z,7.70
2023-05-14T21:51:54.800Z,8.85
2023-05-14T21:54:22.065Z,8.20
2023-05-14T21:56:49.219Z,7.20
2023-05-14T21:59:16.440Z,9.98
2023-05-14T22:04:13.663Z,8.15
2023-05-14T22:06:41.081Z,8.68
2023-05-14T22:09:11.343Z,12.55
2023-05-14T22:11:38.471Z,11.75
2023-05-14T22:14:05.510Z,13.70
2023-05-14T22:16:33.264Z,12.25
2023-05-14T22:19:00.410Z,13.85
2023-05-14T22:21:27.420Z,13.25
2023-05-14T22:23:54.581Z,13.52
2023-05-14T22:26:24.371Z,11.05
2023-05-14T22:28:52.687Z,12.98
2023-05-14T22:31:19.900Z,10.57
2023-05-14T22:33:46.954Z,11.00
2023-05-14T22:36:14.071Z,11.65
2023-05-14T22:38:43.922Z,7.93
2023-05-14T22:41:11.155Z,9.43
2023-05-14T22:43:38.267Z,12.73
2023-05-14T22:46:05.406Z,10.00
2023-05-14T22:48:32.503Z,11.88
2023-05-14T22:50:59.554Z,11.15
2023-05-14T22:53:26.710Z,8.80
2023-05-14T22:55:53.786Z,10.10
2023-05-14T22:58:20.831Z,9.20
2023-05-14T23:00:48.069Z,7.95
2023-05-14T23:03:15.095Z,8.07
2023-05-14T23:05:42.119Z,9.07
2023-05-14T23:08:09.266Z,8.68
2023-05-14T23:10:36.242Z,10.32
2023-05-14T23:13:03.953Z,10.32
2023-05-14T23:15:31.239Z,9.55
2023-05-14T23:17:58.490Z,10.98
2023-05-14T23:20:25.717Z,9.10
2023-05-14T23:22:54.203Z,9.75
2023-05-14T23:25:21.323Z,10.75
2023-05-14T23:27:50.170Z,11.45
2023-05-14T23:30:17.317Z,11.93
2023-05-14T23:32:44.410Z,8.75
2023-05-14T23:35:11.445Z,8.52
2023-05-14T23:37:42.730Z,11.70
2023-05-14T23:40:10.135Z,9.93
2023-05-14T23:42:37.158Z,12.02
2023-05-14T23:45:05.467Z,10.43
2023-05-14T23:47:32.772Z,9.23
2023-05-14T23:49:59.926Z,8.48
2023-05-14T23:52:27.049Z,10.73
2023-05-14T23:54:54.357Z,9.02
2023-05-14T23:57:21.512Z,12.98
2023-05-14T23:59:48.541Z,16.13
